Time;durP1;ratioP1;P1;durP2;ratioP2;P2;SDS_P1;SDS_P2;PMS_P1;PMS_P2;Temp;Humidity;BMP_temperature;BMP_pressure;BME280_temperature;BME280_humidity;BME280_pressure;Samples;Min_cycle;Max_cycle;Signal;HPM_P1;HPM_P2
2023/11/20 00:01:34;;;;;;;21.27;1.52;;;12.40;99.90;;;;;;5052028;28;20166;-81
2023/11/20 00:04:03;;;;;;;24.20;1.40;;;12.30;99.90;;;;;;5051124;28;20687;-81
2023/11/20 00:06:32;;;;;;;22.83;1.85;;;12.40;99.90;;;;;;5033787;28;20173;-81
2023/11/20 00:08:57;;;;;;;21.52;1.80;;;12.30;99.90;;;;;;5051098;28;20233;-81
2023/11/20 00:11:27;;;;;;;22.50;1.40;;;12.30;99.90;;;;;;5052038;28;20166;-81
2023/11/20 00:13:53;;;;;;;21.45;1.40;;;12.20;99.90;;;;;;5034051;28;20193;-81
2023/11/20 00:16:18;;;;;;;20.27;1.30;;;12.30;99.90;;;;;;5052796;28;20162;-81
2023/11/20 00:18:44;;;;;;;23.40;1.77;;;12.30;99.90;;;;;;5049175;28;20246;-80
2023/11/20 00:21:13;;;;;;;21.70;1.50;;;12.20;99.90;;;;;;5028953;28;20170;-79
2023/11/20 00:23:38;;;;;;;22.17;1.90;;;12.20;99.90;;;;;;5024215;28;20185;-79
2023/11/20 00:26:07;;;;;;;24.37;2.27;;;12.20;99.90;;;;;;5043152;28;20227;-80
2023/11/20 00:28:32;;;;;;;24.00;2.67;;;12.20;99.90;;;;;;5027977;28;20284;-80
2023/11/20 00:30:58;;;;;;;24.03;2.17;;;12.20;99.90;;;;;;5044294;28;20169;-79
2023/11/20 00:33:24;;;;;;;23.90;1.93;;;12.10;99.90;;;;;;5045179;28;20586;-79
2023/11/20 00:35:49;;;;;;;22.80;1.90;;;12.10;99.90;;;;;;5030021;28;20639;-80
2023/11/20 00:38:15;;;;;;;27.83;2.53;;;12.10;99.90;;;;;;5045123;28;20169;-80
2023/11/20 00:40:51;;;;;;;24.70;1.80;;;12.00;99.90;;;;;;5045259;28;20170;-80
2023/11/20 00:43:17;;;;;;;24.58;1.35;;;12.10;99.90;;;;;;5048013;28;20224;-80
2023/11/20 00:45:45;;;;;;;31.77;1.87;;;12.10;99.90;;;;;;5029129;28;20169;-79
2023/11/20 00:48:11;;;;;;;26.60;2.30;;;12.10;99.90;;;;;;5027615;28;20173;-80
2023/11/20 00:50:36;;;;;;;22.07;1.93;;;12.10;99.90;;;;;;5046799;28;20231;-80
2023/11/20 00:53:03;;;;;;;26.40;2.10;;;12.10;99.90;;;;;;5044776;28;20226;-80
2023/11/20 00:55:28;;;;;;;25.90;2.70;;;12.10;99.90;;;;;;5045265;28;20166;-80
2023/11/20 00:57:54;;;;;;;25.73;2.60;;;12.10;99.90;;;;;;5044809;28;20166;-80
2023/11/20 01:00:20;;;;;;;25.73;1.90;;;12.00;99.90;;;;;;5026969;28;20181;-79
2023/11/20 01:02:47;;;;;;;23.85;1.90;;;12.10;99.90;;;;;;5046113;28;20249;-80
2023/11/20 01:05:13;;;;;;;24.42;2.10;;;12.10;99.90;;;;;;5029476;28;20190;-80
2023/11/20 01:07:39;;;;;;;24.70;2.03;;;12.10;99.90;;;;;;5046407;28;20174;-80
2023/11/20 01:10:05;;;;;;;24.33;1.83;;;12.10;99.90;;;;;;5046480;28;20445;-80
2023/11/20 01:12:31;;;;;;;25.20;1.98;;;12.10;99.90;;;;;;5029917;28;20161;-79
2023/11/20 01:14:57;;;;;;;23.87;2.27;;;12.10;99.90;;;;;;5046631;28;20213;-80
2023/11/20 01:17:23;;;;;;;23.50;2.03;;;12.10;99.90;;;;;;5048989;28;20166;-80
2023/11/20 01:19:48;;;;;;;22.50;1.83;;;12.10;99.90;;;;;;5048975;28;20196;-80
2023/11/20 01:22:14;;;;;;;22.57;1.70;;;12.10;99.90;;;;;;5048436;28;20177;-80
2023/11/20 01:24:40;;;;;;;24.30;1.60;;;12.10;99.90;;;;;;5046246;28;20796;-80
2023/11/20 01:27:06;;;;;;;23.23;1.90;;;12.10;99.90;;;;;;5046771;28;20674;-80
2023/11/20 01:29:33;;;;;;;28.02;2.42;;;12.10;99.90;;;;;;5029414;28;20213;-80
2023/11/20 01:31:58;;;;;;;23.73;1.45;;;12.10;99.90;;;;;;5030474;28;20166;-79
2023/11/20 01:34:25;;;;;;;21.23;1.40;;;12.10;99.90;;;;;;5048278;28;20257;-80
2023/11/20 01:36:50;;;;;;;22.10;1.65;;;12.20;99.90;;;;;;5047429;28;20598;-80
2023/11/20 01:39:16;;;;;;;23.90;1.73;;;12.20;99.90;;;;;;5048184;28;20165;-81
2023/11/20 01:41:42;;;;;;;23.33;2.00;;;12.20;99.90;;;;;;5048485;28;20220;-80
2023/11/20 01:44:07;;;;;;;21.60;1.43;;;12.20;99.90;;;;;;5048568;28;20218;-80
2023/11/20 01:46:35;;;;;;;24.70;2.57;;;12.20;99.90;;;;;;5048390;28;20250;-80
2023/11/20 01:49:03;;;;;;;21.38;1.33;;;12.20;99.90;;;;;;5045961;28;20471;-80
2023/11/20 01:51:31;;;;;;;21.35;1.65;;;12.20;99.90;;;;;;5046045;28;20585;-80
2023/11/20 01:53:58;;;;;;;21.85;1.45;;;12.20;99.90;;;;;;5047070;28;20184;-80
2023/11/20 01:56:26;;;;;;;21.42;1.60;;;12.20;99.90;;;;;;5046348;28;20154;-80
2023/11/20 01:58:59;;;;;;;23.08;1.75;;;12.20;99.90;;;;;;5046937;28;20166;-80
2023/11/20 02:01:25;;;;;;;25.33;2.00;;;12.20;99.90;;;;;;5046838;28;20226;-80
2023/11/20 02:03:59;;;;;;;28.52;1.90;;;12.10;99.90;;;;;;5047845;28;20733;-80
2023/11/20 02:06:25;;;;;;;28.95;1.75;;;12.10;99.90;;;;;;5047610;28;20177;-80
2023/11/20 02:08:51;;;;;;;21.73;1.50;;;12.10;99.90;;;;;;5030618;28;20251;-80
2023/11/20 02:11:17;;;;;;;22.37;1.40;;;12.00;99.90;;;;;;5030313;28;20170;-80
2023/11/20 02:13:43;;;;;;;21.13;1.65;;;12.00;99.90;;;;;;5047824;28;20178;-80
2023/11/20 02:16:09;;;;;;;23.60;1.77;;;12.00;99.90;;;;;;5046291;28;20166;-80
2023/11/20 02:18:35;;;;;;;25.48;1.70;;;12.00;99.90;;;;;;5047931;28;20234;-80
2023/11/20 02:21:06;;;;;;;22.60;1.60;;;12.00;99.90;;;;;;5048023;28;20166;-80
2023/11/20 02:23:32;;;;;;;25.55;2.70;;;12.00;99.90;;;;;;5047589;28;20261;-79
2023/11/20 02:26:13;;;;;;;22.27;1.60;;;12.00;99.90;;;;;;5029904;28;20174;-80
2023/11/20 02:28:43;;;;;;;23.75;2.03;;;12.00;99.90;;;;;;5047468;28;20178;-80
2023/11/20 02:31:08;;;;;;;22.80;1.67;;;11.90;99.90;;;;;;5030488;28;20188;-80
2023/11/20 02:33:39;;;;;;;23.40;1.57;;;11.80;99.90;;;;;;5047560;28;20186;-80
2023/11/20 02:36:05;;;;;;;22.20;1.80;;;11.80;99.90;;;;;;5049067;28;20234;-80
2023/11/20 02:38:31;;;;;;;21.88;1.67;;;11.80;99.90;;;;;;5030431;28;20195;-80
2023/11/20 02:41:00;;;;;;;21.17;1.25;;;11.80;99.90;;;;;;5030023;28;20170;-80
2023/11/20 02:43:26;;;;;;;23.30;1.90;;;11.80;99.90;;;;;;5048838;28;20201;-80
2023/11/20 02:45:54;;;;;;;25.40;1.83;;;11.80;99.90;;;;;;5048735;28;20233;-80
2023/11/20 02:48:22;;;;;;;25.17;1.80;;;11.80;99.90;;;;;;5049772;28;20154;-81
2023/11/20 02:50:48;;;;;;;21.40;1.58;;;11.70;99.90;;;;;;5052510;28;20185;-80
2023/11/20 02:53:14;;;;;;;25.70;1.30;;;11.70;99.90;;;;;;5051539;28;20177;-80
2023/11/20 02:55:39;;;;;;;22.80;2.10;;;11.70;99.90;;;;;;5052028;28;20158;-80
2023/11/20 02:58:05;;;;;;;20.50;1.20;;;11.70;99.90;;;;;;5051979;28;20539;-80
2023/11/20 03:00:31;;;;;;;29.20;1.70;;;11.60;99.90;;;;;;5034123;28;20169;-81
2023/11/20 03:02:56;;;;;;;21.07;1.20;;;11.60;99.90;;;;;;5051635;28;20166;-80
2023/11/20 03:05:22;;;;;;;21.40;1.70;;;11.60;99.90;;;;;;5051356;28;20170;-80
2023/11/20 03:07:48;;;;;;;23.73;1.37;;;11.60;99.90;;;;;;5053036;28;20188;-80
2023/11/20 03:10:13;;;;;;;21.97;1.30;;;11.70;99.90;;;;;;5051820;28;20182;-80
2023/11/20 03:12:39;;;;;;;21.40;1.33;;;11.70;99.90;;;;;;5052242;28;20639;-80
2023/11/20 03:15:06;;;;;;;21.67;2.00;;;11.70;99.90;;;;;;5051036;28;20446;-80
2023/11/20 03:17:31;;;;;;;22.67;1.15;;;11.70;99.90;;;;;;5051701;28;20197;-81
2023/11/20 03:19:57;;;;;;;20.60;1.23;;;11.80;99.90;;;;;;5034310;28;20192;-80
2023/11/20 03:22:23;;;;;;;20.10;1.13;;;11.80;99.90;;;;;;5051697;28;20400;-80
2023/11/20 03:24:48;;;;;;;20.47;1.10;;;11.80;99.90;;;;;;5052155;28;20186;-80
2023/11/20 03:27:14;;;;;;;20.40;1.27;;;11.80;99.90;;;;;;5051522;28;20166;-80
2023/11/20 03:29:42;;;;;;;21.90;1.40;;;11.80;99.90;;;;;;5034311;28;20197;-80
2023/11/20 03:32:08;;;;;;;23.15;1.30;;;11.80;99.90;;;;;;5035419;28;20170;-81
2023/11/20 03:34:35;;;;;;;21.77;1.53;;;11.70;99.90;;;;;;5052849;28;20189;-81
2023/11/20 03:37:01;;;;;;;22.10;1.60;;;11.70;99.90;;;;;;5052635;28;20173;-81
2023/11/20 03:39:27;;;;;;;21.20;1.30;;;11.80;99.90;;;;;;5052571;28;20170;-80
2023/11/20 03:41:53;;;;;;;22.05;1.40;;;11.80;99.90;;;;;;5052600;28;20260;-80
2023/11/20 03:44:19;;;;;;;20.87;1.13;;;11.80;99.90;;;;;;5052923;28;20186;-81
2023/11/20 03:46:45;;;;;;;21.17;1.70;;;11.80;99.90;;;;;;5052497;28;20170;-81
2023/11/20 03:49:10;;;;;;;21.13;1.17;;;11.80;99.90;;;;;;5052330;28;20201;-81
2023/11/20 03:51:36;;;;;;;20.83;1.33;;;11.80;99.90;;;;;;5052552;28;20166;-81
2023/11/20 03:54:01;;;;;;;21.23;1.40;;;11.80;99.90;;;;;;5051811;28;20250;-81
2023/11/20 03:56:27;;;;;;;23.00;1.70;;;11.80;99.90;;;;;;5051348;28;20162;-81
2023/11/20 03:58:53;;;;;;;23.13;1.23;;;11.80;99.90;;;;;;5051495;28;20636;-81
2023/11/20 04:01:19;;;;;;;21.35;1.40;;;11.80;99.90;;;;;;5051143;28;20174;-81
2023/11/20 04:03:45;;;;;;;21.47;1.43;;;11.80;99.90;;;;;;5051777;28;20186;-80
2023/11/20 04:06:10;;;;;;;22.13;1.73;;;11.80;99.90;;;;;;5052483;28;20165;-81
2023/11/20 04:08:37;;;;;;;21.77;1.50;;;11.80;99.90;;;;;;5051646;28;20235;-81
2023/11/20 04:11:05;;;;;;;22.73;1.10;;;11.80;99.90;;;;;;5051742;28;20166;-81
2023/11/20 04:14:08;;;;;;;22.30;1.58;;;11.80;99.90;;;;;;5050891;28;20188;-81
2023/11/20 04:16:34;;;;;;;20.25;1.30;;;11.70;99.90;;;;;;5051061;28;20658;-81
2023/11/20 04:19:00;;;;;;;25.20;1.70;;;11.70;99.90;;;;;;5035485;28;20233;-80
2023/11/20 04:21:26;;;;;;;20.93;1.17;;;11.80;99.90;;;;;;5052230;28;20162;-81
2023/11/20 04:23:55;;;;;;;20.50;1.40;;;11.70;99.90;;;;;;5052364;28;20451;-81
2023/11/20 04:26:20;;;;;;;20.67;1.27;;;11.70;99.90;;;;;;5052950;28;20628;-81
2023/11/20 04:28:47;;;;;;;22.90;1.60;;;11.80;99.90;;;;;;5052362;28;20198;-81
2023/11/20 04:31:13;;;;;;;20.30;1.00;;;11.80;99.90;;;;;;5053322;28;20165;-81
2023/11/20 04:33:42;;;;;;;24.40;1.73;;;11.80;99.90;;;;;;5052098;28;20241;-81
2023/11/20 04:36:09;;;;;;;21.25;1.33;;;11.70;99.90;;;;;;5053671;28;20171;-81
2023/11/20 04:38:36;;;;;;;22.33;1.95;;;11.70;99.90;;;;;;5052169;28;20212;-81
2023/11/20 04:41:02;;;;;;;23.50;1.70;;;11.70;99.90;;;;;;5034968;28;20177;-81
2023/11/20 04:43:27;;;;;;;23.60;1.70;;;11.60;99.90;;;;;;5051927;28;20209;-81
2023/11/20 04:45:53;;;;;;;24.33;1.93;;;11.60;99.90;;;;;;5035132;28;20166;-81
2023/11/20 04:48:19;;;;;;;21.53;1.60;;;11.70;99.90;;;;;;5053075;28;20169;-81
2023/11/20 04:50:44;;;;;;;22.07;1.50;;;11.60;99.90;;;;;;5052180;28;20170;-81
2023/11/20 04:53:10;;;;;;;22.40;1.77;;;11.60;99.90;;;;;;5052584;28;20162;-81
2023/11/20 04:55:36;;;;;;;32.03;1.67;;;11.70;99.90;;;;;;5051557;28;20166;-81
2023/11/20 04:58:02;;;;;;;23.33;1.97;;;11.70;99.90;;;;;;5052513;28;20170;-81
2023/11/20 05:00:28;;;;;;;20.93;1.50;;;11.70;99.90;;;;;;5034984;28;20459;-81
2023/11/20 05:02:54;;;;;;;21.90;1.50;;;11.80;99.90;;;;;;5053814;28;20192;-81
2023/11/20 05:05:20;;;;;;;22.57;1.50;;;11.80;99.90;;;;;;5052603;28;20174;-81
2023/11/20 05:07:46;;;;;;;27.13;2.00;;;11.70;99.90;;;;;;5052872;28;20170;-81
2023/11/20 05:10:11;;;;;;;25.90;1.67;;;11.70;99.90;;;;;;5052255;28;20182;-81
2023/11/20 05:12:37;;;;;;;22.80;1.47;;;11.60;99.90;;;;;;5033842;28;20405;-81
2023/11/20 05:15:03;;;;;;;21.97;1.63;;;11.60;99.90;;;;;;5051974;28;20253;-81
2023/11/20 05:17:31;;;;;;;23.43;1.33;;;11.60;99.90;;;;;;5052593;28;20177;-81
2023/11/20 05:19:56;;;;;;;21.63;1.40;;;11.60;99.90;;;;;;5052857;28;20428;-81
2023/11/20 05:22:22;;;;;;;21.90;1.40;;;11.60;99.90;;;;;;5051746;28;20188;-81
2023/11/20 05:24:47;;;;;;;20.27;1.30;;;11.50;99.90;;;;;;5035418;28;20189;-81
2023/11/20 05:27:13;;;;;;;23.70;1.73;;;11.50;99.90;;;;;;5052813;28;20690;-81
2023/11/20 05:29:39;;;;;;;22.20;1.33;;;11.50;99.90;;;;;;5053190;28;20201;-81
2023/11/20 05:32:06;;;;;;;21.70;1.50;;;11.50;99.90;;;;;;5053243;28;20179;-81
2023/11/20 05:34:33;;;;;;;22.40;1.50;;;11.50;99.90;;;;;;5052045;28;20444;-81
2023/11/20 05:37:02;;;;;;;22.20;1.65;;;11.50;99.90;;;;;;5052509;28;20154;-81
2023/11/20 05:39:27;;;;;;;24.00;1.55;;;11.50;99.90;;;;;;5052735;28;20170;-80
2023/11/20 05:41:53;;;;;;;20.77;1.20;;;11.50;99.90;;;;;;5052256;28;20197;-81
2023/11/20 05:44:19;;;;;;;24.60;2.60;;;11.50;99.90;;;;;;5051992;28;20194;-81
2023/11/20 05:46:45;;;;;;;24.70;1.70;;;11.50;99.90;;;;;;5052094;28;20162;-81
2023/11/20 05:49:11;;;;;;;24.88;3.50;;;11.50;99.90;;;;;;5051571;28;20265;-81
2023/11/20 05:51:37;;;;;;;21.25;1.50;;;11.50;99.90;;;;;;5051874;28;20193;-81
2023/11/20 05:54:03;;;;;;;22.70;3.10;;;11.50;99.90;;;;;;5051226;28;20650;-81
2023/11/20 05:56:32;;;;;;;23.27;1.70;;;11.50;99.90;;;;;;5051975;28;20181;-81
2023/11/20 05:58:58;;;;;;;24.60;2.08;;;11.40;99.90;;;;;;5051677;28;20397;-81
2023/11/20 06:01:23;;;;;;;26.55;2.20;;;11.40;99.90;;;;;;5033804;28;20166;-81
2023/11/20 06:03:49;;;;;;;24.83;2.90;;;11.40;99.90;;;;;;5051828;28;20182;-81
2023/11/20 06:06:21;;;;;;;22.60;2.10;;;11.50;99.90;;;;;;5052476;28;20170;-80
2023/11/20 06:08:48;;;;;;;30.63;2.25;;;11.40;99.90;;;;;;5052371;28;20205;-81
2023/11/20 06:11:23;;;;;;;22.48;1.77;;;11.40;99.90;;;;;;5052241;28;20160;-81
2023/11/20 06:13:49;;;;;;;22.27;1.92;;;11.40;99.90;;;;;;5051238;28;20197;-80
2023/11/20 06:16:15;;;;;;;24.63;1.87;;;11.40;99.90;;;;;;5052023;28;20166;-80
2023/11/20 06:18:41;;;;;;;23.00;2.20;;;11.40;99.90;;;;;;5052177;28;20491;-81
2023/11/20 06:21:07;;;;;;;21.00;1.90;;;11.50;99.90;;;;;;5052628;28;20193;-81
2023/11/20 06:23:33;;;;;;;23.65;1.85;;;11.40;99.90;;;;;;5052057;28;20255;-80
2023/11/20 06:25:58;;;;;;;25.80;2.27;;;11.30;99.90;;;;;;5054713;28;20162;-80
2023/11/20 06:28:24;;;;;;;27.57;2.30;;;11.30;99.90;;;;;;5054795;28;20397;-81
2023/11/20 06:30:52;;;;;;;26.07;2.10;;;11.30;99.90;;;;;;5055658;28;20435;-81
2023/11/20 06:33:20;;;;;;;28.30;2.05;;;11.30;99.90;;;;;;5055686;28;20193;-81
2023/11/20 06:35:45;;;;;;;25.58;2.75;;;11.20;99.90;;;;;;5053991;28;20170;-81
2023/11/20 06:38:11;;;;;;;27.20;2.37;;;11.30;99.90;;;;;;5054946;28;20166;-81
2023/11/20 06:40:42;;;;;;;21.73;2.40;;;11.30;99.90;;;;;;5053842;28;20169;-81
2023/11/20 06:43:08;;;;;;;25.30;1.90;;;11.20;99.90;;;;;;5054716;28;20216;-81
2023/11/20 06:45:34;;;;;;;24.30;2.15;;;11.30;99.90;;;;;;5055332;28;20173;-81
2023/11/20 06:48:01;;;;;;;32.03;2.20;;;11.30;99.90;;;;;;5055035;28;20177;-81
2023/11/20 06:50:27;;;;;;;27.23;2.42;;;11.30;99.90;;;;;;5036566;28;20550;-81
2023/11/20 06:52:55;;;;;;;25.95;2.40;;;11.30;99.90;;;;;;5053710;28;20168;-80
2023/11/20 06:55:23;;;;;;;23.38;1.83;;;11.40;99.90;;;;;;5037305;28;20524;-81
2023/11/20 06:57:48;;;;;;;26.65;2.30;;;11.40;99.90;;;;;;5053767;28;20197;-81
2023/11/20 07:00:14;;;;;;;32.10;2.43;;;11.40;99.90;;;;;;5054477;28;20165;-81
2023/11/20 07:02:42;;;;;;;25.93;2.57;;;11.40;99.90;;;;;;5055268;28;20424;-81
2023/11/20 07:05:08;;;;;;;24.13;1.92;;;11.40;99.90;;;;;;5037346;28;20437;-81
2023/11/20 07:07:50;;;;;;;22.55;1.70;;;11.50;99.90;;;;;;5054664;28;20186;-81
2023/11/20 07:10:16;;;;;;;25.50;2.83;;;11.50;99.90;;;;;;5053432;28;20224;-81
2023/11/20 07:12:42;;;;;;;23.58;1.65;;;11.50;99.90;;;;;;5054245;28;20245;-81
2023/11/20 07:15:08;;;;;;;22.80;2.07;;;11.40;99.90;;;;;;5054710;28;20182;-81
2023/11/20 07:17:35;;;;;;;22.83;1.83;;;11.40;99.90;;;;;;5054349;28;20188;-81
2023/11/20 07:20:02;;;;;;;22.20;1.88;;;11.50;99.90;;;;;;5036886;28;20204;-81
2023/11/20 07:22:28;;;;;;;25.45;1.75;;;11.50;99.90;;;;;;5054353;28;20169;-81
2023/11/20 07:24:54;;;;;;;26.57;2.80;;;11.40;99.90;;;;;;5053774;28;20182;-81
2023/11/20 07:27:20;;;;;;;26.00;2.07;;;11.50;99.90;;;;;;5052730;28;20426;-81
2023/11/20 07:29:46;;;;;;;22.50;2.10;;;11.50;99.90;;;;;;5053769;28;20440;-80
2023/11/20 07:32:12;;;;;;;27.92;2.70;;;11.60;99.90;;;;;;5054494;28;20166;-81
2023/11/20 07:34:38;;;;;;;20.83;1.83;;;11.60;99.90;;;;;;5053900;28;20211;-81
2023/11/20 07:37:04;;;;;;;24.33;1.97;;;11.60;99.90;;;;;;5052259;28;20168;-80
2023/11/20 07:39:30;;;;;;;27.90;2.00;;;11.60;99.90;;;;;;5053354;28;20170;-80
2023/11/20 07:41:56;;;;;;;23.48;1.70;;;11.60;99.90;;;;;;5053144;28;20463;-80
2023/11/20 07:44:22;;;;;;;25.05;2.30;;;11.70;99.90;;;;;;5036921;28;20208;-80
2023/11/20 07:46:48;;;;;;;23.90;2.03;;;11.70;99.90;;;;;;5053158;28;20166;-80
2023/11/20 07:49:14;;;;;;;24.80;1.93;;;11.70;99.90;;;;;;5053819;28;20466;-81
2023/11/20 07:51:39;;;;;;;22.23;1.40;;;11.70;99.90;;;;;;5053609;28;20177;-81
2023/11/20 07:54:07;;;;;;;24.20;1.90;;;11.70;99.90;;;;;;5053667;28;20181;-81
2023/11/20 07:56:34;;;;;;;23.42;2.13;;;11.80;99.90;;;;;;5034723;28;20170;-80
2023/11/20 07:58:59;;;;;;;25.60;2.00;;;11.80;99.90;;;;;;5054020;28;20162;-81
2023/11/20 08:01:25;;;;;;;21.03;1.57;;;11.80;99.90;;;;;;5052807;28;20170;-80
2023/11/20 08:03:51;;;;;;;24.23;1.80;;;11.80;99.90;;;;;;5052666;28;20190;-80
2023/11/20 08:06:18;;;;;;;25.73;3.00;;;11.80;99.90;;;;;;5052775;28;20172;-80
2023/11/20 08:08:44;;;;;;;23.15;2.03;;;11.80;99.90;;;;;;5053328;28;20432;-80
2023/11/20 08:11:10;;;;;;;30.40;2.43;;;11.80;99.90;;;;;;5053554;28;20205;-80
2023/11/20 08:13:36;;;;;;;23.60;2.10;;;11.90;99.90;;;;;;5052462;28;20428;-80
2023/11/20 08:16:03;;;;;;;23.93;1.87;;;11.80;99.90;;;;;;5053047;28;20181;-80
2023/11/20 08:18:29;;;;;;;26.50;2.67;;;11.80;99.90;;;;;;5052794;28;20169;-80
2023/11/20 08:20:55;;;;;;;23.67;2.00;;;11.90;99.90;;;;;;5051942;28;20184;-80
2023/11/20 08:23:22;;;;;;;28.92;2.63;;;11.90;99.90;;;;;;5034734;28;20235;-80
2023/11/20 08:25:47;;;;;;;27.83;2.25;;;11.90;99.90;;;;;;5052171;28;20515;-80
2023/11/20 08:28:13;;;;;;;24.13;2.20;;;11.80;99.90;;;;;;5052142;28;20162;-80
2023/11/20 08:30:39;;;;;;;25.83;1.67;;;11.80;99.90;;;;;;5051812;28;20217;-80
2023/11/20 08:33:07;;;;;;;24.55;2.35;;;11.70;99.90;;;;;;5052308;28;20182;-80
2023/11/20 08:35:33;;;;;;;34.85;2.60;;;11.70;99.90;;;;;;5052202;28;20166;-80
2023/11/20 08:37:59;;;;;;;27.48;2.58;;;11.70;99.90;;;;;;5034206;28;20170;-80
2023/11/20 08:40:25;;;;;;;22.00;1.77;;;11.70;99.90;;;;;;5051772;28;20189;-80
2023/11/20 08:42:50;;;;;;;24.80;2.60;;;11.70;99.90;;;;;;5049875;28;20588;-80
2023/11/20 08:45:16;;;;;;;23.40;2.17;;;11.80;99.90;;;;;;5050891;28;20189;-80
2023/11/20 08:47:41;;;;;;;24.73;2.20;;;11.90;99.90;;;;;;5051072;28;20180;-80
2023/11/20 08:50:10;;;;;;;19.90;2.30;;;11.90;99.90;;;;;;5050878;28;20200;-80
2023/11/20 08:52:35;;;;;;;22.73;1.83;;;12.00;99.90;;;;;;5051640;28;20162;-80
2023/11/20 08:55:01;;;;;;;19.30;1.30;;;11.90;99.90;;;;;;5051484;28;20271;-80
2023/11/20 08:57:27;;;;;;;23.30;2.30;;;11.90;99.90;;;;;;5049985;28;20197;-80
2023/11/20 08:59:52;;;;;;;22.17;1.80;;;12.00;99.90;;;;;;5050920;28;20416;-80
2023/11/20 09:02:18;;;;;;;23.30;2.07;;;12.10;99.90;;;;;;5033606;28;20173;-80
2023/11/20 09:04:44;;;;;;;19.60;1.20;;;12.10;99.90;;;;;;5049212;28;20193;-79
2023/11/20 09:07:09;;;;;;;20.27;1.90;;;12.20;99.90;;;;;;5049862;28;20193;-80
2023/11/20 09:09:38;;;;;;;21.10;1.50;;;12.20;99.90;;;;;;5050168;28;20224;-80
2023/11/20 09:12:04;;;;;;;22.23;1.70;;;12.20;99.90;;;;;;5032811;28;20170;-80
2023/11/20 09:14:42;;;;;;;19.00;1.40;;;12.20;99.90;;;;;;5050754;28;20241;-80
2023/11/20 09:17:28;;;;;;;20.70;1.85;;;12.30;99.90;;;;;;5050176;28;20146;-80
2023/11/20 09:19:54;;;;;;;20.92;1.60;;;12.40;99.90;;;;;;5049694;28;20181;-79
2023/11/20 09:22:19;;;;;;;20.27;1.90;;;12.40;99.90;;;;;;5048969;28;20184;-79
2023/11/20 09:24:45;;;;;;;19.70;1.63;;;12.50;99.90;;;;;;5031895;28;20193;-79
2023/11/20 09:27:11;;;;;;;20.73;1.37;;;12.50;99.90;;;;;;5124947;22;20209;-80
2023/11/20 09:29:37;;;;;;;19.80;1.40;;;12.50;99.90;;;;;;5050200;28;20190;-80
2023/11/20 09:32:03;;;;;;;19.75;1.75;;;12.50;99.90;;;;;;5050467;28;20169;-80
2023/11/20 09:34:29;;;;;;;21.80;1.88;;;12.60;99.90;;;;;;5049591;28;20698;-80
2023/11/20 09:36:56;;;;;;;30.00;1.40;;;12.60;99.90;;;;;;5032958;28;20542;-80
2023/11/20 09:39:22;;;;;;;25.98;1.98;;;12.50;99.90;;;;;;5049540;28;20166;-80
2023/11/20 09:41:48;;;;;;;20.30;1.37;;;12.50;99.90;;;;;;5047798;28;20229;-79
2023/11/20 09:44:16;;;;;;;20.30;1.73;;;12.50;99.90;;;;;;5044041;28;20188;-79
2023/11/20 09:46:46;;;;;;;25.63;1.63;;;12.40;99.90;;;;;;5043434;28;20177;-79
2023/11/20 09:49:26;;;;;;;20.20;1.02;;;12.40;99.90;;;;;;5028512;28;20197;-79
2023/11/20 09:51:52;;;;;;;22.50;1.70;;;12.30;99.90;;;;;;5045065;28;20520;-79
2023/11/20 09:54:18;;;;;;;25.75;1.42;;;12.40;99.90;;;;;;5046194;28;20205;-79
2023/11/20 09:56:44;;;;;;;22.67;1.33;;;12.40;99.90;;;;;;5028054;28;20166;-79
2023/11/20 09:59:12;;;;;;;22.23;1.60;;;12.60;99.90;;;;;;5047609;28;20173;-80
2023/11/20 10:01:42;;;;;;;20.27;1.65;;;12.80;99.90;;;;;;5051423;28;20228;-80
2023/11/20 10:04:08;;;;;;;22.75;1.38;;;12.90;99.90;;;;;;5032992;28;20194;-80
2023/11/20 10:06:38;;;;;;;20.75;1.48;;;13.00;99.90;;;;;;5046108;28;20166;-82
2023/11/20 10:09:05;;;;;;;19.83;1.33;;;12.90;99.90;;;;;;5040346;28;20208;-83
2023/11/20 10:15:01;;;;;;;20.23;1.38;;;12.90;99.90;;;;;;5549264;22;20283;-82
2023/11/20 10:17:28;;;;;;;23.70;1.63;;;12.90;99.90;;;;;;5038540;28;20165;-81
2023/11/20 10:19:54;;;;;;;18.75;1.00;;;13.00;99.90;;;;;;5038217;28;20169;-82
2023/11/20 10:22:24;;;;;;;23.23;1.47;;;13.10;99.90;;;;;;5038307;28;20216;-81
2023/11/20 10:24:50;;;;;;;20.00;1.40;;;13.10;99.90;;;;;;5038236;28;20181;-83
2023/11/20 10:27:17;;;;;;;22.10;1.27;;;13.00;99.90;;;;;;5038650;28;20197;-81
2023/11/20 10:29:43;;;;;;;19.27;1.13;;;13.00;99.90;;;;;;5037731;28;20284;-81
2023/11/20 10:32:11;;;;;;;20.50;1.67;;;12.90;99.90;;;;;;5037583;28;20197;-81
2023/11/20 10:34:39;;;;;;;19.77;1.27;;;12.70;99.90;;;;;;5037605;28;20178;-80
2023/11/20 10:37:09;;;;;;;23.60;1.33;;;12.60;99.90;;;;;;5037546;28;20170;-81
2023/11/20 10:39:35;;;;;;;20.88;1.70;;;12.50;99.90;;;;;;5037889;28;20683;-81
2023/11/20 10:42:01;;;;;;;20.90;1.20;;;12.40;99.90;;;;;;5037469;28;20170;-80
2023/11/20 10:44:37;;;;;;;20.53;1.37;;;12.40;99.90;;;;;;5037606;28;20194;-81
2023/11/20 10:47:05;;;;;;;20.05;1.50;;;12.50;99.90;;;;;;5019758;28;20902;-81
2023/11/20 10:49:35;;;;;;;23.88;1.30;;;12.50;99.90;;;;;;5037385;28;20193;-81
2023/11/20 10:52:09;;;;;;;20.58;1.63;;;12.50;99.90;;;;;;5020252;28;20165;-81
2023/11/20 10:54:49;;;;;;;21.73;1.08;;;12.50;99.90;;;;;;5037861;28;20181;-81
2023/11/20 10:57:18;;;;;;;22.90;1.60;;;12.60;99.90;;;;;;5037637;28;20172;-82
2023/11/20 10:59:52;;;;;;;22.60;1.65;;;12.70;99.90;;;;;;5037225;28;20162;-82
2023/11/20 11:02:27;;;;;;;23.02;1.33;;;12.80;99.90;;;;;;5037555;28;20175;-82
2023/11/20 11:04:55;;;;;;;21.85;1.60;;;13.00;99.90;;;;;;5019564;28;20732;-82
2023/11/20 11:07:24;;;;;;;21.27;1.30;;;13.10;99.90;;;;;;5037676;28;20185;-81
2023/11/20 11:09:53;;;;;;;20.67;1.17;;;13.00;99.90;;;;;;5052635;28;20199;-80
2023/11/20 11:12:21;;;;;;;21.77;1.48;;;13.00;99.90;;;;;;5036558;28;20166;-80
2023/11/20 11:14:47;;;;;;;21.60;1.23;;;13.00;99.90;;;;;;5053845;28;20202;-80
2023/11/20 11:17:17;;;;;;;20.97;1.63;;;12.90;99.90;;;;;;5054469;28;20408;-80
2023/11/20 11:20:03;;;;;;;20.60;1.20;;;12.90;99.90;;;;;;5037021;28;20420;-80
2023/11/20 11:22:37;;;;;;;21.17;1.30;;;12.80;99.90;;;;;;5055062;28;20213;-80
2023/11/20 11:25:09;;;;;;;20.88;1.33;;;12.80;99.90;;;;;;5055397;28;20204;-80
2023/11/20 11:27:52;;;;;;;22.40;1.42;;;12.80;99.90;;;;;;5053057;28;20146;-80
2023/11/20 11:30:24;;;;;;;20.83;1.10;;;12.70;99.90;;;;;;5050152;28;20208;-81
2023/11/20 11:33:04;;;;;;;21.58;1.35;;;12.60;99.90;;;;;;5046331;28;20150;-80
2023/11/20 11:35:58;;;;;;;21.05;1.90;;;12.50;99.90;;;;;;5047921;28;20154;-82
2023/11/20 11:38:48;;;;;;;21.85;1.20;;;12.50;99.90;;;;;;5048315;28;20154;-81
2023/11/20 11:41:38;;;;;;;23.52;1.80;;;12.40;99.90;;;;;;5028314;28;20213;-80
2023/11/20 11:44:12;;;;;;;23.27;1.50;;;12.30;99.90;;;;;;5042989;28;20556;-81
2023/11/20 11:46:40;;;;;;;20.67;1.35;;;12.10;99.90;;;;;;5043652;28;20158;-80
2023/11/20 11:49:23;;;;;;;23.05;1.50;;;11.90;99.90;;;;;;5026248;28;20221;-81
2023/11/20 11:51:54;;;;;;;21.30;2.13;;;11.70;99.90;;;;;;5027463;28;20170;-81
2023/11/20 11:54:21;;;;;;;21.35;1.30;;;11.80;99.90;;;;;;5028152;28;20190;-81
2023/11/20 11:56:49;;;;;;;21.90;1.30;;;11.80;99.90;;;;;;5028766;28;20174;-81
2023/11/20 11:59:43;;;;;;;22.10;2.45;;;11.90;99.90;;;;;;5030202;28;20178;-82
2023/11/20 12:02:10;;;;;;;22.02;1.30;;;11.90;99.90;;;;;;5023551;28;20182;-82
2023/11/20 12:04:51;;;;;;;22.65;1.58;;;11.90;99.90;;;;;;5048294;28;20194;-81
2023/11/20 12:07:43;;;;;;;21.02;1.17;;;11.90;99.90;;;;;;5049522;28;20178;-82
2023/11/20 12:10:12;;;;;;;21.65;1.40;;;11.90;99.90;;;;;;5049746;28;20186;-82
2023/11/20 12:12:57;;;;;;;23.83;3.42;;;11.80;99.90;;;;;;5032320;28;20173;-82
2023/11/20 12:15:42;;;;;;;21.48;1.75;;;11.80;99.90;;;;;;5050019;28;20173;-82
2023/11/20 12:18:12;;;;;;;20.95;1.17;;;11.80;99.90;;;;;;5050166;28;20253;-82
2023/11/20 12:20:42;;;;;;;20.55;1.05;;;11.80;99.90;;;;;;5050735;28;20205;-82
2023/11/20 12:23:19;;;;;;;23.05;1.73;;;11.80;99.90;;;;;;5050346;28;20166;-82
2023/11/20 12:25:48;;;;;;;20.83;1.10;;;11.80;99.90;;;;;;5031883;28;20166;-82
2023/11/20 12:28:15;;;;;;;22.10;1.20;;;12.00;99.90;;;;;;5032434;28;20205;-82
2023/11/20 12:30:48;;;;;;;20.70;1.10;;;12.00;99.90;;;;;;5034333;28;20701;-82
2023/11/20 12:33:14;;;;;;;20.83;1.30;;;12.10;99.90;;;;;;5043530;28;20150;-86
2023/11/20 12:35:42;;;;;;;20.77;1.10;;;12.00;99.90;;;;;;5036729;28;20158;-86
2023/11/20 12:38:20;;;;;;;19.75;1.13;;;12.10;99.90;;;;;;5036381;28;20401;-86
2023/11/20 12:40:56;;;;;;;26.45;1.50;;;12.10;99.90;;;;;;5034908;28;20615;-86
2023/11/20 12:43:24;;;;;;;20.55;0.95;;;12.10;99.90;;;;;;5034012;28;20297;-87